Bay Area Logo

Alameda, CA Single Family Real Estate Listings

73 Total Real Estate Listings * Click on table heading to sort
Date Posted Property Type Style Address Price Living Area Lot Size Price/Sq Ft.
2018-09-19 Single Family Victorian 1821 Chapin St Alameda, CA 94501 $895,000 1,894 sq. ft. 3,049 sq. ft. $473
2018-09-18 Single Family Spanish 1611 Schiller St Alameda, CA 94501 $849,000 1,245 sq. ft. 4,356 sq. ft. $682
2018-09-18 Single Family Ranch 3330 Constance Cir Alameda, CA 94501 $1,105,000 1,653 sq. ft. 5,663 sq. ft. $668
2018-09-18 Single Family Ranch 1008 Azalea Dr Alameda, CA 94502 $825,000 1,196 sq. ft. 3,920 sq. ft. $690
2018-09-18 Single Family Contemporary 419 Dewitt Ln Alameda, CA 94501 $1,569,000 3,336 sq. ft. 3,049 sq. ft. $470
2018-09-17 Single Family Contemporary 644 Sand Hook Isle Alameda, CA 94501 $1,248,000 2,238 sq. ft. 10,019 sq. ft. $558
2018-09-17 Single Family Contemporary; Fixer-Handyman Special 1031 Azalea Drive Alameda, CA 94502 $769,000 1,196 sq. ft. 4,356 sq. ft. $643
2018-09-17 Single Family Ranch 401 Melrose Ave Alameda, CA 94502 $849,000 1,505 sq. ft. 6,534 sq. ft. $564
2018-09-17 Single Family Bungalow 1730 Buena Vista Ave Alameda, CA 94501 $649,000 1,072 sq. ft. 3,049 sq. ft. $605
2018-09-16 Single Family Spanish 1919 Alameda Ave Alameda, CA 94501 $795,000 1,232 sq. ft. 2,614 sq. ft. $645
2018-09-15 Single Family Bungalow; Craftsman 2205 Clinton Avenue Alameda, CA 94501 $785,000 1,106 sq. ft. 3,920 sq. ft. $710
2018-09-14 Single Family 2838 Windsor Drive Alameda, CA 94501 $699,000 1,693 sq. ft. 3,920 sq. ft. $413
2018-09-14 Single Family Contemporary 218 Basinside Way Alameda, CA 94502 $1,080,000 2,076 sq. ft. 5,227 sq. ft. $520
2018-09-13 Single Family Contemporary 5 Jouett Square Alameda, CA 94501 $1,268,890 2,805 sq. ft. 3,920 sq. ft. $452
2018-09-13 Single Family Contemporary 2745 Young St Alameda, CA 94502 $749,000 1,198 sq. ft. 2,178 sq. ft. $625
2018-09-13 Single Family Craftsman; Traditional; Victorian 767 Haight Ave Alameda, CA 94501 $950,000 1,945 sq. ft. 4,792 sq. ft. $488
2018-09-12 Single Family Contemporary 162 Oak Park Dr Alameda, CA 94502 $799,000 1,658 sq. ft. 2,178 sq. ft. $482
2018-09-10 Single Family Ranch 1316 Saint Charles St Alameda, CA 94501 $1,095,000 1,753 sq. ft. 7,405 sq. ft. $625
2018-09-07 Single Family Tudor 915 Broadway Alameda, CA 94501 $1,098,000 2,174 sq. ft. 3,485 sq. ft. $505
2018-09-07 Single Family Normandy 307 Haight Ave Alameda, CA 94501 $749,000 1,199 sq. ft. 5,227 sq. ft. $625
2018-09-07 Single Family Contemporary; Spanish 1802 Balsa St Alameda, CA 94501 $1,095,000 2,213 sq. ft. 3,485 sq. ft. $495
2018-09-06 Single Family Craftsman 1918 Chestnut St Alameda, CA 94501 $748,000 1,022 sq. ft. 2,614 sq. ft. $732
2018-09-06 Single Family Contemporary 1552 Clement Ave Alameda, CA 94501 $1,149,000 2,287 sq. ft. 2,178 sq. ft. $502
2018-09-06 Single Family Contemporary 73 Sand Harbor Rd Alameda, CA 94502 $1,650,000 2,774 sq. ft. 6,534 sq. ft. $595
2018-09-06 Single Family Victorian 847 Santa Clara Ave Alameda, CA 94501 $895,000 2,245 sq. ft. 2,614 sq. ft. $399
2018-09-06 Single Family Contemporary 2051 Hibbard St Alameda, CA 94501 $995,000 2,678 sq. ft. 3,049 sq. ft. $372
2018-09-03 Single Family Contemporary 117 Bay Park Ter Alameda, CA 94502 $819,000 1,534 sq. ft. $534
2018-09-03 Single Family Victorian 1535 Mozart St Alameda, CA 94501 $1,349,000 1,959 sq. ft. 2,614 sq. ft. $689
2018-08-31 Single Family Contemporary 2757 5th Street Alameda, CA 94502 $1,680,000 3,336 sq. ft. 3,049 sq. ft. $504
2018-08-30 Single Family 2031 Buena Vista Ave Alameda, CA 94501 $789,000 2,288 sq. ft. 3,485 sq. ft. $345
2018-08-25 Single Family Mid Century Modern 1514 Eastshore Dr Alameda, CA 94501 $1,250,000 1,412 sq. ft. 4,792 sq. ft. $885
2018-08-25 Single Family Bungalow 1442 Fernside Blvd Alameda, CA 94501 $975,000 1,651 sq. ft. 4,792 sq. ft. $591
2018-08-24 Single Family Contemporary 371 Tucker Ave Alameda, CA 94501 $998,000 2,219 sq. ft. 3,049 sq. ft. $450
2018-08-24 Single Family Bungalow; Craftsman 2700 San Jose Ave Alameda, CA 94501 $799,000 1,287 sq. ft. 3,485 sq. ft. $621
2018-08-24 Single Family Mediterranean 390 Hollister Ave Alameda, CA 94501 $998,000 2,219 sq. ft. 3,049 sq. ft. $450
2018-08-24 Single Family Contemporary 353 Channing Way Alameda, CA 94502 $1,100,000 1,757 sq. ft. 5,663 sq. ft. $626
2018-08-23 Single Family Brown Shingle; Bungalow; Fixer-Handyman Special 1312 Fernside Blvd Alameda, CA 94501 $675,000 848 sq. ft. 2,614 sq. ft. $796
2018-08-23 Single Family Bungalow 508 Taylor Ave Alameda, CA 94501 $999,000 2,024 sq. ft. 4,792 sq. ft. $494
2018-08-21 Single Family Craftsman 1230 Versailles Ave Alameda, CA 94501 $1,088,000 1,706 sq. ft. 4,356 sq. ft. $638
2018-08-20 Single Family Mediterranean 2917 Northwood Dr Alameda, CA 94501 $1,295,000 2,598 sq. ft. 4,792 sq. ft. $498
2018-08-20 Single Family Cape Cod 1205 Saint Charles St Alameda, CA 94501 $1,385,000 1,939 sq. ft. 6,098 sq. ft. $714
2018-08-18 Single Family Bungalow 1628 Fernside Blvd Alameda, CA 94501 $1,025,000 1,458 sq. ft. 5,663 sq. ft. $703
2018-08-17 Single Family Brown Shingle; Victorian 2531 Webb Ave Alameda, CA 94501 $799,000 1,088 sq. ft. 4,356 sq. ft. $734
2018-08-17 Single Family 1030 Court St Alameda, CA 94501 $998,000 2,000 sq. ft. 3,485 sq. ft. $499
2018-08-17 Single Family Victorian 1223 Paru Street Alameda, CA 94501 $1,495,000 2,415 sq. ft. 4,792 sq. ft. $619
2018-08-16 Single Family Cape Cod 1825 Everett St Alameda, CA 94501 $995,000 2,156 sq. ft. 4,792 sq. ft. $462
2018-08-16 Single Family Mediterranean 1183 Park Ave Alameda, CA 94501 $1,498,890 2,147 sq. ft. 3,049 sq. ft. $698
2018-08-15 Single Family Contemporary 2458 Haile St Alameda, CA 94501 $995,000 2,219 sq. ft. 3,049 sq. ft. $448
2018-08-14 Single Family Cottage 1820 Chestnut St Alameda, CA 94501 $745,000 996 sq. ft. 3,485 sq. ft. $748
2018-08-13 Single Family Bungalow 1609 6th St Alameda, CA 94501 $785,000 1,050 sq. ft. 3,049 sq. ft. $748
2018-08-10 Single Family Mediterranean 122 Ratto Rd Alameda, CA 94502 $1,268,000 1,869 sq. ft. 6,098 sq. ft. $678
2018-08-10 Single Family Contemporary 1046 Mangrove Ln Alameda, CA 94502 $879,000 2,083 sq. ft. 3,920 sq. ft. $422
2018-08-10 Single Family Mid Century Modern 157 Sea Bridge Alameda, CA 94502 $1,399,000 2,617 sq. ft. 5,227 sq. ft. $535
2018-08-09 Single Family Contemporary 18 Waterford Pl Alameda, CA 94502 $999,000 2,056 sq. ft. 4,792 sq. ft. $486
2018-08-07 Single Family Ranch 433 Camden Rd Alameda, CA 94501 $899,000 1,494 sq. ft. 5,227 sq. ft. $602
2018-08-06 Single Family Contemporary 1840 Stanton St Alameda, CA 94501 $1,349,900 2,078 sq. ft. 2,614 sq. ft. $650
2018-07-30 Single Family Traditional 2761 5th St Alameda, CA 94501 $1,500,000 3,336 sq. ft. 3,049 sq. ft. $450
2018-07-26 Single Family Contemporary 2414 Roosevelt Dr Alameda, CA 94501 $789,000 1,030 sq. ft. 3,920 sq. ft. $766
2018-07-21 Single Family Contemporary 759 Eagle Ave Alameda, CA 94501 $749,000 1,565 sq. ft. 3,920 sq. ft. $479
2018-07-21 Single Family Mediterranean 1 Miranda Ct Alameda, CA 94502 $1,090,000 1,869 sq. ft. 3,920 sq. ft. $583
2018-07-19 Single Family Contemporary 1815 Otis Dr Alameda, CA 94501 $1,275,000 3,207 sq. ft. 5,663 sq. ft. $398
2018-06-02 Single Family Contemporary 2981 Northwood Dr Alameda, CA 94501 $1,198,000 2,940 sq. ft. 6,534 sq. ft. $407
2018-06-02 Single Family 1028 Lewelling Ct Alameda, CA 94501 $825,000 1,608 sq. ft. 3,049 sq. ft. $513
2018-05-30 Single Family Ranch 1109 Otis Dr Alameda, CA 94501 $1,399,500 1,911 sq. ft. 6,534 sq. ft. $732
2018-05-10 Single Family Brown Shingle 1801 Grand St Alameda, CA 94501 $668,000 1,119 sq. ft. 2,614 sq. ft. $597
2018-03-07 Single Family 2114 Santa Clara Ave Alameda, CA 94501 $2,495,000 6,698 sq. ft. 10,454 sq. ft. $372
2017-11-18 Single Family Victorian 1118 Union St Alameda, CA 94501 $1,200,000 2,661 sq. ft. 6,970 sq. ft. $451
2017-06-17 Single Family 1075 Foster St Alameda, CA 94502 $899,000 1,525 sq. ft. 2,043 sq. ft. $590
2017-06-05 Single Family 2751 5th St Alameda, CA 94501 $1,375,900 2,530 sq. ft. 3,049 sq. ft. $544
2017-05-25 Single Family Bungalow 1123 Versailles Ave Alameda, CA 94501 $649,950 974 sq. ft. 4,312 sq. ft. $667
2017-04-28 Single Family Cottage 1534 Saint Charles St Alameda, CA 94501 $899,000 1,053 sq. ft. 7,841 sq. ft. $854
2016-12-09 Single Family Bungalow 3210 Liberty Ave Alameda, CA 94501 $849,000 1,142 sq. ft. 4,356 sq. ft. $743
2016-11-01 Single Family Contemporary 490 Diller St Alameda, CA 94501 $1,011,140 1,777 sq. ft. 1,786 sq. ft. $569